createdAt,value
2018-08-22T08:37:11.331Z,54.50
2018-08-22T08:39:39.891Z,54.40
2018-08-22T08:42:09.107Z,54.40
2018-08-22T08:44:37.501Z,53.90
2018-08-22T08:47:07.407Z,53.50
2018-08-22T08:49:36.171Z,53.40
2018-08-22T08:52:04.661Z,53.00
2018-08-22T08:54:33.155Z,53.20
2018-08-22T08:57:01.643Z,53.40
2018-08-22T08:59:30.757Z,53.10
2018-08-22T09:01:59.332Z,53.10
2018-08-22T09:04:28.550Z,52.30
2018-08-22T09:06:56.851Z,52.10
2018-08-22T09:09:25.180Z,51.60
2018-08-22T09:11:58.413Z,52.20
2018-08-22T09:14:27.600Z,52.10
2018-08-22T09:16:56.574Z,51.70
2018-08-22T09:19:24.866Z,51.70
2018-08-22T09:21:53.192Z,51.20
2018-08-22T09:24:21.665Z,50.90
2018-08-22T09:26:49.970Z,50.30
2018-08-22T09:29:19.092Z,49.90
2018-08-22T09:31:47.295Z,49.60
2018-08-22T09:34:15.529Z,49.00
2018-08-22T09:36:43.741Z,48.40
2018-08-22T09:39:13.310Z,48.10
2018-08-22T09:41:41.861Z,47.00
2018-08-22T09:44:10.024Z,45.70
2018-08-22T09:46:39.128Z,44.70
2018-08-22T09:49:07.365Z,44.00
2018-08-22T09:51:35.608Z,43.10
2018-08-22T09:54:03.825Z,42.40
2018-08-22T09:56:32.055Z,41.80
2018-08-22T09:59:00.268Z,41.40
2018-08-22T10:01:33.920Z,40.90
2018-08-22T10:04:02.529Z,41.10
2018-08-22T10:06:38.868Z,41.50
2018-08-22T10:09:11.449Z,41.80
2018-08-22T10:11:39.582Z,42.20
2018-08-22T10:14:07.810Z,42.80
2018-08-22T10:16:35.990Z,43.20
2018-08-22T10:19:04.277Z,43.60
2018-08-22T10:21:32.468Z,43.90
2018-08-22T10:24:00.620Z,44.40
2018-08-22T10:26:28.913Z,44.90
2018-08-22T10:28:57.224Z,44.70
2018-08-22T10:31:25.908Z,45.40
2018-08-22T10:33:54.457Z,45.50
2018-08-22T10:36:22.632Z,45.40
2018-08-22T10:38:50.831Z,45.40
2018-08-22T10:41:19.076Z,45.30
2018-08-22T10:43:47.389Z,45.10
2018-08-22T10:46:15.547Z,44.90
2018-08-22T10:48:43.712Z,44.80
2018-08-22T10:51:11.933Z,45.00
2018-08-22T10:53:40.160Z,44.90
2018-08-22T10:56:08.325Z,44.50
2018-08-22T10:58:36.523Z,44.60
2018-08-22T11:01:04.753Z,44.50
2018-08-22T11:03:32.977Z,43.50
2018-08-22T11:06:01.160Z,43.50
2018-08-22T11:08:29.267Z,43.70
2018-08-22T11:10:57.674Z,44.00
2018-08-22T11:13:25.855Z,43.60
2018-08-22T11:15:54.251Z,43.30
2018-08-22T11:18:22.325Z,43.20
2018-08-22T11:20:50.698Z,43.50
2018-08-22T11:23:30.894Z,43.70
2018-08-22T11:26:11.372Z,43.80
2018-08-22T11:28:50.844Z,43.60
2018-08-22T11:31:30.758Z,42.90
2018-08-22T11:34:10.338Z,42.80
2018-08-22T11:36:37.616Z,42.60
2018-08-22T11:39:07.154Z,42.40
2018-08-22T11:41:35.352Z,42.00
2018-08-22T11:44:03.560Z,42.10
2018-08-22T11:46:31.729Z,41.80
2018-08-22T11:48:59.956Z,42.10
2018-08-22T11:51:28.173Z,42.40
2018-08-22T11:53:56.289Z,42.10
2018-08-22T11:56:25.179Z,41.90
2018-08-22T11:58:53.394Z,41.80
2018-08-22T12:01:21.583Z,41.80
2018-08-22T12:03:49.809Z,42.30
2018-08-22T12:06:17.970Z,42.40
2018-08-22T12:08:46.117Z,42.30
2018-08-22T12:11:14.317Z,42.10
2018-08-22T12:13:42.549Z,42.00
2018-08-22T12:16:10.831Z,41.80
2018-08-22T12:18:38.925Z,42.10
2018-08-22T12:21:07.197Z,41.80
2018-08-22T12:23:35.367Z,41.50
2018-08-22T12:26:03.560Z,41.40
2018-08-22T12:28:31.752Z,41.70
2018-08-22T12:30:59.899Z,41.80
2018-08-22T12:33:28.114Z,41.70
2018-08-22T12:35:56.413Z,41.40
2018-08-22T12:38:24.717Z,40.80
2018-08-22T12:40:52.923Z,40.20
2018-08-22T12:43:21.070Z,40.20
2018-08-22T12:45:49.279Z,39.90
2018-08-22T12:48:17.477Z,40.20
2018-08-22T12:50:45.713Z,40.00
2018-08-22T12:53:13.953Z,39.90
2018-08-22T12:55:42.096Z,40.00
2018-08-22T12:58:10.270Z,39.10
2018-08-22T13:00:38.400Z,38.70
2018-08-22T13:03:06.596Z,39.40
2018-08-22T13:05:34.832Z,37.80
2018-08-22T13:08:03.052Z,38.80
2018-08-22T13:10:31.228Z,39.10
2018-08-22T13:12:59.541Z,39.30
2018-08-22T13:15:27.804Z,39.60
2018-08-22T13:17:55.968Z,39.30
2018-08-22T13:20:24.244Z,39.60
2018-08-22T13:22:52.467Z,39.50
2018-08-22T13:25:20.656Z,39.20
2018-08-22T13:27:49.093Z,39.00
2018-08-22T13:30:17.271Z,38.60
2018-08-22T13:32:45.460Z,39.20
2018-08-22T13:35:13.627Z,39.20
2018-08-22T13:37:42.241Z,39.60
2018-08-22T13:40:10.447Z,38.80
2018-08-22T13:42:38.600Z,38.20
2018-08-22T13:45:07.345Z,38.20
2018-08-22T13:47:35.687Z,38.60
2018-08-22T13:50:03.911Z,39.00
2018-08-22T13:52:32.117Z,39.40
2018-08-22T13:55:00.560Z,38.50
2018-08-22T13:57:28.694Z,37.80
2018-08-22T13:59:56.861Z,37.00
2018-08-22T14:02:25.340Z,37.40
2018-08-22T14:04:53.509Z,37.20
2018-08-22T14:07:21.684Z,37.00
2018-08-22T14:09:49.851Z,36.90
2018-08-22T14:12:18.004Z,37.50
2018-08-22T14:14:46.201Z,37.40
2018-08-22T14:17:14.394Z,37.40
2018-08-22T14:19:42.589Z,37.30
2018-08-22T14:22:10.768Z,36.90
2018-08-22T14:24:39.002Z,36.90
2018-08-22T14:27:07.145Z,36.60
2018-08-22T14:29:35.304Z,37.30
2018-08-22T14:32:03.498Z,37.00
2018-08-22T14:34:31.669Z,36.80
2018-08-22T14:37:00.309Z,36.50
2018-08-22T14:39:28.583Z,36.90
2018-08-22T14:41:56.803Z,37.10
2018-08-22T14:44:25.037Z,37.30
2018-08-22T14:46:53.209Z,37.50
2018-08-22T14:49:21.381Z,37.00
2018-08-22T14:51:49.575Z,37.00
2018-08-22T14:54:17.838Z,37.20
2018-08-22T14:56:46.064Z,37.10
2018-08-22T14:59:14.249Z,37.00
2018-08-22T15:01:42.434Z,37.40
2018-08-22T15:04:10.665Z,37.60
2018-08-22T15:06:38.925Z,38.40
2018-08-22T15:09:12.858Z,37.30
2018-08-22T15:11:41.068Z,37.10
2018-08-22T15:14:09.730Z,37.10
2018-08-22T15:16:37.840Z,37.30
2018-08-22T15:19:06.112Z,36.50
2018-08-22T15:21:34.290Z,36.70
2018-08-22T15:24:02.472Z,36.80
2018-08-22T15:26:30.672Z,37.60
2018-08-22T15:28:58.825Z,36.60
2018-08-22T15:31:27.064Z,37.50
2018-08-22T15:33:55.340Z,37.90
2018-08-22T15:36:23.631Z,37.20
2018-08-22T15:38:51.795Z,37.00
2018-08-22T15:41:20.018Z,37.20
2018-08-22T15:43:48.200Z,37.00
2018-08-22T15:46:16.378Z,37.40
2018-08-22T15:48:44.522Z,37.20
2018-08-22T15:51:12.813Z,37.00
2018-08-22T15:53:40.962Z,37.10
2018-08-22T15:56:09.188Z,37.70
2018-08-22T15:58:37.346Z,37.40
2018-08-22T16:01:05.670Z,37.00
2018-08-22T16:03:33.820Z,36.80
2018-08-22T16:06:01.981Z,37.40
2018-08-22T16:08:32.433Z,37.50
2018-08-22T16:11:04.963Z,37.60
2018-08-22T16:13:33.124Z,37.40
2018-08-22T16:16:02.737Z,37.70
2018-08-22T16:18:33.113Z,37.50
2018-08-22T16:21:02.164Z,37.40
2018-08-22T16:23:32.544Z,37.70
2018-08-22T16:26:01.790Z,37.70
2018-08-22T16:28:40.078Z,37.50
2018-08-22T16:31:08.324Z,37.50
2018-08-22T16:33:36.440Z,37.50
2018-08-22T16:36:05.115Z,37.60
2018-08-22T16:38:33.555Z,37.30
2018-08-22T16:41:01.780Z,37.30
2018-08-22T16:43:41.956Z,37.20
2018-08-22T16:46:12.688Z,37.50
2018-08-22T16:48:41.633Z,37.50
2018-08-22T16:51:09.799Z,37.40
2018-08-22T16:53:37.977Z,37.00
2018-08-22T16:56:06.232Z,36.90
2018-08-22T16:58:34.468Z,37.60
2018-08-22T17:01:02.638Z,37.90
2018-08-22T17:03:30.904Z,37.40
2018-08-22T17:06:05.476Z,37.50
2018-08-22T17:08:33.777Z,38.40
2018-08-22T17:11:05.851Z,38.20
2018-08-22T17:13:48.578Z,38.10
2018-08-22T17:16:17.316Z,38.70
2018-08-22T17:18:45.533Z,38.30
2018-08-22T17:21:13.730Z,39.10
2018-08-22T17:23:43.765Z,39.40
2018-08-22T17:26:17.188Z,39.00
2018-08-22T17:28:48.265Z,38.20
2018-08-22T17:31:17.273Z,38.20
2018-08-22T17:33:49.294Z,38.20
2018-08-22T17:36:17.565Z,38.70
2018-08-22T17:38:48.136Z,39.00
2018-08-22T17:41:16.929Z,39.70
2018-08-22T17:43:58.608Z,39.20
2018-08-22T17:46:28.700Z,39.20
2018-08-22T17:48:57.222Z,39.50
2018-08-22T17:51:25.463Z,39.50
2018-08-22T17:53:53.577Z,39.50
2018-08-22T17:56:23.188Z,39.90
2018-08-22T17:58:52.445Z,40.40
2018-08-22T18:01:20.941Z,40.50
2018-08-22T18:03:49.109Z,40.90
2018-08-22T18:06:17.404Z,41.00
2018-08-22T18:08:45.538Z,41.30
2018-08-22T18:11:13.764Z,41.50
2018-08-22T18:13:41.882Z,41.60
2018-08-22T18:16:10.048Z,42.10
2018-08-22T18:18:38.228Z,42.20
2018-08-22T18:21:06.421Z,42.40
2018-08-22T18:23:37.389Z,42.60
2018-08-22T18:26:05.899Z,42.70
2018-08-22T18:28:34.077Z,42.80
2018-08-22T18:31:02.250Z,43.00
2018-08-22T18:33:30.393Z,43.30
2018-08-22T18:35:58.662Z,43.70
2018-08-22T18:38:26.841Z,44.10
2018-08-22T18:41:05.836Z,44.50
2018-08-22T18:43:34.061Z,44.80
2018-08-22T18:46:04.581Z,44.90
2018-08-22T18:48:33.862Z,45.20
2018-08-22T18:51:02.558Z,45.50
2018-08-22T18:53:30.705Z,45.70
2018-08-22T18:56:10.429Z,45.90
2018-08-22T18:58:38.756Z,46.00
2018-08-22T19:01:07.075Z,46.20
2018-08-22T19:03:35.712Z,46.50
2018-08-22T19:06:04.581Z,46.30
2018-08-22T19:08:36.319Z,46.00
2018-08-22T19:11:04.667Z,46.00
2018-08-22T19:13:32.895Z,45.80
2018-08-22T19:16:03.205Z,46.20
2018-08-22T19:18:31.372Z,46.20
2018-08-22T19:21:01.328Z,46.50
2018-08-22T19:23:29.848Z,46.70
2018-08-22T19:25:58.997Z,46.90
2018-08-22T19:28:27.168Z,46.90
2018-08-22T19:30:55.377Z,47.20
2018-08-22T19:33:24.921Z,47.60
2018-08-22T19:35:53.299Z,47.90
2018-08-22T19:38:22.766Z,47.90
2018-08-22T19:40:51.118Z,47.90
2018-08-22T19:43:19.529Z,48.00
2018-08-22T19:45:48.777Z,48.30
2018-08-22T19:48:16.936Z,48.40
2018-08-22T19:50:45.298Z,48.50
2018-08-22T19:53:13.490Z,48.60
2018-08-22T19:55:42.569Z,48.40
2018-08-22T19:58:11.748Z,48.60
2018-08-22T20:00:40.137Z,48.50
2018-08-22T20:03:08.429Z,48.50
2018-08-22T20:05:50.570Z,48.80
2018-08-22T20:08:38.141Z,49.20
2018-08-22T20:11:07.097Z,49.40
2018-08-22T20:13:47.546Z,49.30
2018-08-22T20:16:16.510Z,49.40
2018-08-22T20:18:47.157Z,49.40
2018-08-22T20:21:20.973Z,49.40
2018-08-22T20:23:51.285Z,49.60
2018-08-22T20:26:19.454Z,49.90
2018-08-22T20:28:56.861Z,49.90
2018-08-22T20:31:25.182Z,49.90
2018-08-22T20:34:10.164Z,49.50
2018-08-22T20:36:38.591Z,50.20
2018-08-22T20:39:09.190Z,50.40
2018-08-22T20:41:38.145Z,50.50
2018-08-22T20:44:08.936Z,50.80
2018-08-22T20:46:37.358Z,51.00
2018-08-22T20:49:05.709Z,50.90
2018-08-22T20:51:34.241Z,51.10
2018-08-22T20:54:07.977Z,51.50
2018-08-22T20:56:38.165Z,51.60
2018-08-22T20:59:06.655Z,51.60
2018-08-22T21:01:35.065Z,51.80
2018-08-22T21:04:03.463Z,52.00
2018-08-22T21:06:31.811Z,52.10
2018-08-22T21:09:00.246Z,52.50
2018-08-22T21:11:28.669Z,52.30
2018-08-22T21:13:57.113Z,52.20
2018-08-22T21:16:25.806Z,52.20
2018-08-22T21:18:54.277Z,52.30
2018-08-22T21:21:25.698Z,52.20
2018-08-22T21:23:54.193Z,52.40
2018-08-22T21:26:37.582Z,52.30
2018-08-22T21:29:06.269Z,52.90
2018-08-22T21:31:35.398Z,52.70
2018-08-22T21:34:11.273Z,52.80
2018-08-22T21:36:41.653Z,52.70
2018-08-22T21:39:16.633Z,52.70
2018-08-22T21:41:46.419Z,53.00
2018-08-22T21:44:22.564Z,53.10
2018-08-22T21:47:00.818Z,53.20
2018-08-22T21:49:29.714Z,53.20
2018-08-22T21:52:03.540Z,53.30
2018-08-22T21:54:38.538Z,53.60
2018-08-22T22:00:34.001Z,54.00
2018-08-22T22:06:24.843Z,54.10
2018-08-22T22:09:03.075Z,54.30
2018-08-22T22:11:38.828Z,54.40
2018-08-22T22:56:57.923Z,55.40
